PSLKS SBPA-SBGL
Flight info
| Callsign | PSLKS |
|---|---|
| Flight time | 1h 23m |
| Altitude | 45000 |
| Route | UBNUT UN857 AKNUB |
| Aircraft | C700/M-SBDGHM1RWXY/LB2 |
Departure
| Time | 2026-05-04 10:26 |
|---|---|
| Airport | Porto Alegre-Salgado Filho International Airport (SBPA) |
Arrival
| Time | 2026-05-04 11:49 |
|---|---|
| Airport | Rio Galeão – Tom Jobim International Airport (SBGL) |
| Time | Latitude | Longitude | Altitude | Speed | Heading |
|---|---|---|---|---|---|
| 2026-05-04 10:21 | -29.99182 | -51.18155 | 13 ft | 0 kts | 297° |
| 2026-05-04 10:25 | -29.99434 | -51.18256 | 15 ft | 5 kts | 152° |
| 2026-05-04 10:25 | -29.99441 | -51.18203 | 15 ft | 23 kts | 92° |
| 2026-05-04 10:25 | -29.99453 | -51.17602 | 16 ft | 123 kts | 91° |
| 2026-05-04 10:25 | -29.99478 | -51.16401 | 561 ft | 167 kts | 91° |
| 2026-05-04 10:26 | -29.99503 | -51.14974 | 1706 ft | 190 kts | 89° |
| 2026-05-04 10:26 | -29.99531 | -51.13380 | 3014 ft | 208 kts | 88° |
| 2026-05-04 10:26 | -29.99562 | -51.11599 | 4178 ft | 236 kts | 89° |
| 2026-05-04 10:26 | -29.99561 | -51.09621 | 5404 ft | 263 kts | 81° |
| 2026-05-04 10:27 | -29.98748 | -51.07652 | 6698 ft | 279 kts | 43° |
| 2026-05-04 10:27 | -29.97184 | -51.06344 | 8328 ft | 281 kts | 27° |
| 2026-05-04 10:27 | -29.95501 | -51.05108 | 9882 ft | 293 kts | 31° |
| 2026-05-04 10:27 | -29.93885 | -51.03594 | 11090 ft | 318 kts | 39° |
| 2026-05-04 10:28 | -29.92257 | -51.01733 | 12353 ft | 335 kts | 43° |
| 2026-05-04 10:28 | -29.90579 | -50.99831 | 13941 ft | 343 kts | 40° |
| 2026-05-04 10:28 | -29.88776 | -50.97972 | 15228 ft | 352 kts | 38° |
| 2026-05-04 10:28 | -29.86914 | -50.96074 | 16514 ft | 362 kts | 39° |
| 2026-05-04 10:29 | -29.85032 | -50.94078 | 17768 ft | 373 kts | 39° |
| 2026-05-04 10:29 | -29.83109 | -50.92018 | 18922 ft | 382 kts | 39° |
| 2026-05-04 10:29 | -29.81129 | -50.89932 | 20029 ft | 389 kts | 39° |
| 2026-05-04 10:29 | -29.79108 | -50.87818 | 21117 ft | 397 kts | 39° |
| 2026-05-04 10:30 | -29.77046 | -50.85651 | 22170 ft | 405 kts | 39° |
| 2026-05-04 10:30 | -29.74948 | -50.83439 | 23188 ft | 413 kts | 39° |
| 2026-05-04 10:30 | -29.72810 | -50.81188 | 24128 ft | 420 kts | 39° |
| 2026-05-04 10:30 | -29.70633 | -50.78905 | 25024 ft | 427 kts | 39° |
| 2026-05-04 10:31 | -29.68420 | -50.76583 | 25916 ft | 434 kts | 39° |
| 2026-05-04 10:31 | -29.66171 | -50.74224 | 26741 ft | 441 kts | 39° |
| 2026-05-04 10:32 | -29.51946 | -50.59334 | 31408 ft | 480 kts | 39° |
| 2026-05-04 10:33 | -29.49460 | -50.56739 | 32051 ft | 485 kts | 39° |
| 2026-05-04 10:33 | -29.46927 | -50.54158 | 32639 ft | 491 kts | 37° |
| 2026-05-04 10:33 | -29.44321 | -50.51591 | 33324 ft | 495 kts | 38° |
| 2026-05-04 10:33 | -29.41727 | -50.48997 | 34140 ft | 494 kts | 38° |
| 2026-05-04 10:34 | -29.39143 | -50.46418 | 34845 ft | 493 kts | 37° |
| 2026-05-04 10:34 | -29.36542 | -50.43853 | 35480 ft | 493 kts | 37° |
| 2026-05-04 10:34 | -29.33941 | -50.41290 | 36108 ft | 493 kts | 37° |
| 2026-05-04 10:34 | -29.31329 | -50.38705 | 36476 ft | 498 kts | 37° |
| 2026-05-04 10:35 | -29.28702 | -50.36105 | 36862 ft | 498 kts | 36° |
| 2026-05-04 10:35 | -29.25966 | -50.33682 | 37139 ft | 498 kts | 32° |
| 2026-05-04 10:35 | -29.23143 | -50.31302 | 37148 ft | 510 kts | 32° |
| 2026-05-04 10:35 | -29.20261 | -50.28862 | 37136 ft | 522 kts | 32° |
| 2026-05-04 10:36 | -29.17326 | -50.26336 | 37158 ft | 533 kts | 33° |
| 2026-05-04 10:36 | -29.14399 | -50.23817 | 37155 ft | 526 kts | 33° |
| 2026-05-04 10:36 | -29.11523 | -50.21367 | 37858 ft | 504 kts | 32° |
| 2026-05-04 10:36 | -29.08765 | -50.19028 | 39018 ft | 488 kts | 32° |
| 2026-05-04 10:37 | -29.06034 | -50.16712 | 39271 ft | 491 kts | 32° |
| 2026-05-04 10:37 | -29.03290 | -50.14377 | 39593 ft | 492 kts | 32° |
| 2026-05-04 10:37 | -29.00544 | -50.12035 | 39923 ft | 492 kts | 32° |
| 2026-05-04 10:37 | -28.97798 | -50.09702 | 40222 ft | 492 kts | 31° |
| 2026-05-04 10:39 | -28.81264 | -49.95692 | 41776 ft | 494 kts | 31° |
| 2026-05-04 10:39 | -28.78507 | -49.93360 | 42061 ft | 493 kts | 31° |
| 2026-05-04 10:39 | -28.75746 | -49.91028 | 42254 ft | 494 kts | 31° |
| 2026-05-04 10:40 | -28.72986 | -49.88692 | 42469 ft | 496 kts | 32° |
| 2026-05-04 10:40 | -28.70402 | -49.86053 | 42703 ft | 502 kts | 43° |
| 2026-05-04 10:40 | -28.68175 | -49.82968 | 42924 ft | 506 kts | 53° |
| 2026-05-04 10:40 | -28.66357 | -49.79591 | 43214 ft | 507 kts | 59° |
| 2026-05-04 10:41 | -28.64611 | -49.76101 | 43389 ft | 508 kts | 59° |
| 2026-05-04 10:41 | -28.62860 | -49.72608 | 43615 ft | 508 kts | 59° |
| 2026-05-04 10:41 | -28.61101 | -49.69121 | 43803 ft | 508 kts | 58° |
| 2026-05-04 10:41 | -28.59319 | -49.65588 | 44003 ft | 509 kts | 59° |
| 2026-05-04 10:42 | -28.57558 | -49.62093 | 44130 ft | 510 kts | 59° |
| 2026-05-04 10:42 | -28.55818 | -49.58640 | 44346 ft | 509 kts | 59° |
| 2026-05-04 10:42 | -28.54056 | -49.55151 | 44617 ft | 509 kts | 59° |
| 2026-05-04 10:42 | -28.52290 | -49.51661 | 44788 ft | 509 kts | 58° |
| 2026-05-04 10:43 | -28.50528 | -49.48176 | 44971 ft | 508 kts | 58° |
| 2026-05-04 10:44 | -28.37964 | -49.23422 | 45136 ft | 527 kts | 58° |
| 2026-05-04 10:45 | -28.36123 | -49.19806 | 45148 ft | 530 kts | 58° |
| 2026-05-04 10:45 | -28.32409 | -49.12522 | 45155 ft | 536 kts | 58° |
| 2026-05-04 10:46 | -28.28659 | -49.05218 | 45146 ft | 540 kts | 56° |
| 2026-05-04 10:46 | -28.23898 | -48.98596 | 45154 ft | 540 kts | 44° |
| 2026-05-04 10:47 | -28.18863 | -48.92293 | 45158 ft | 545 kts | 45° |
| 2026-05-04 10:47 | -28.13733 | -48.85854 | 45153 ft | 548 kts | 44° |
| 2026-05-04 10:49 | -27.93285 | -48.60342 | 45155 ft | 545 kts | 44° |
| 2026-05-04 10:50 | -27.88191 | -48.54014 | 45152 ft | 543 kts | 44° |
| 2026-05-04 10:52 | -27.67783 | -48.28741 | 45160 ft | 545 kts | 44° |
| 2026-05-04 10:52 | -27.62669 | -48.22430 | 45159 ft | 545 kts | 44° |
| 2026-05-04 10:54 | -27.42189 | -47.97257 | 45173 ft | 545 kts | 43° |
| 2026-05-04 10:56 | -27.21605 | -47.72281 | 45166 ft | 546 kts | 43° |
| 2026-05-04 10:57 | -27.16435 | -47.66036 | 45172 ft | 546 kts | 43° |
| 2026-05-04 10:57 | -27.11259 | -47.59797 | 45175 ft | 546 kts | 43° |
| 2026-05-04 10:58 | -27.06083 | -47.53566 | 45178 ft | 546 kts | 43° |
| 2026-05-04 10:58 | -27.00897 | -47.47333 | 45179 ft | 547 kts | 43° |
| 2026-05-04 10:59 | -26.95702 | -47.41097 | 45177 ft | 547 kts | 43° |
| 2026-05-04 10:59 | -26.90497 | -47.34859 | 45181 ft | 548 kts | 43° |
| 2026-05-04 11:00 | -26.85290 | -47.28627 | 45184 ft | 549 kts | 43° |
| 2026-05-04 11:02 | -26.64444 | -47.03810 | 45188 ft | 543 kts | 42° |
| 2026-05-04 11:05 | -26.25270 | -46.57835 | 45190 ft | 543 kts | 42° |
| 2026-05-04 11:06 | -26.20059 | -46.51759 | 45195 ft | 541 kts | 41° |
| 2026-05-04 11:06 | -26.14867 | -46.45715 | 45194 ft | 540 kts | 41° |
| 2026-05-04 11:10 | -25.79096 | -46.04292 | 45191 ft | 542 kts | 41° |
| 2026-05-04 11:12 | -25.58195 | -45.80271 | 45207 ft | 542 kts | 41° |
| 2026-05-04 11:12 | -25.52939 | -45.74251 | 45194 ft | 543 kts | 41° |
| 2026-05-04 11:13 | -25.47685 | -45.68242 | 45197 ft | 543 kts | 40° |
| 2026-05-04 11:13 | -25.42451 | -45.62264 | 45198 ft | 544 kts | 40° |
| 2026-05-04 11:14 | -25.37182 | -45.56253 | 45214 ft | 543 kts | 40° |
| 2026-05-04 11:16 | -25.16301 | -45.32515 | 45210 ft | 539 kts | 40° |
| 2026-05-04 11:16 | -25.11056 | -45.26573 | 45208 ft | 541 kts | 40° |
| 2026-05-04 11:17 | -25.05788 | -45.20612 | 45209 ft | 544 kts | 40° |
| 2026-05-04 11:19 | -24.84790 | -44.96925 | 45201 ft | 538 kts | 40° |
| 2026-05-04 11:19 | -24.79535 | -44.91017 | 45199 ft | 537 kts | 39° |
| 2026-05-04 11:20 | -24.74326 | -44.85171 | 45203 ft | 540 kts | 39° |
| 2026-05-04 11:20 | -24.69049 | -44.79252 | 45214 ft | 543 kts | 40° |
| 2026-05-04 11:22 | -24.50620 | -44.58807 | 41245 ft | 512 kts | 33° |
| 2026-05-04 11:22 | -24.47789 | -44.56525 | 40581 ft | 499 kts | 25° |
| 2026-05-04 11:23 | -24.44786 | -44.54694 | 39931 ft | 491 kts | 19° |
| 2026-05-04 11:23 | -24.41732 | -44.53003 | 39286 ft | 493 kts | 19° |
| 2026-05-04 11:24 | -24.22955 | -44.42492 | 35239 ft | 510 kts | 19° |
| 2026-05-04 11:25 | -24.19797 | -44.40727 | 34567 ft | 509 kts | 19° |
| 2026-05-04 11:25 | -24.16645 | -44.38971 | 33857 ft | 507 kts | 19° |
| 2026-05-04 11:25 | -24.13507 | -44.37222 | 33184 ft | 505 kts | 19° |
| 2026-05-04 11:26 | -24.07199 | -44.33713 | 31843 ft | 513 kts | 20° |
| 2026-05-04 11:27 | -23.83714 | -44.25580 | 29311 ft | 515 kts | 11° |
| 2026-05-04 11:28 | -23.80313 | -44.24360 | 29097 ft | 513 kts | 11° |
| 2026-05-04 11:28 | -23.76895 | -44.23292 | 28884 ft | 509 kts | 7° |
| 2026-05-04 11:28 | -23.73474 | -44.22374 | 28686 ft | 507 kts | 7° |
| 2026-05-04 11:28 | -23.70053 | -44.21385 | 28448 ft | 508 kts | 9° |
| 2026-05-04 11:29 | -23.66670 | -44.20292 | 28243 ft | 506 kts | 10° |
| 2026-05-04 11:29 | -23.63305 | -44.19233 | 28050 ft | 501 kts | 8° |
| 2026-05-04 11:29 | -23.59934 | -44.18250 | 27495 ft | 503 kts | 8° |
| 2026-05-04 11:29 | -23.56571 | -44.17270 | 26839 ft | 496 kts | 9° |
| 2026-05-04 11:31 | -23.34359 | -44.10546 | 22475 ft | 456 kts | 10° |
| 2026-05-04 11:33 | -23.13487 | -44.04284 | 18389 ft | 433 kts | 11° |
| 2026-05-04 11:33 | -23.10597 | -44.03418 | 17802 ft | 428 kts | 11° |
| 2026-05-04 11:33 | -23.07740 | -44.02562 | 17246 ft | 424 kts | 12° |
| 2026-05-04 11:34 | -23.04933 | -44.01720 | 16701 ft | 410 kts | 12° |
| 2026-05-04 11:34 | -23.02254 | -44.00915 | 16189 ft | 388 kts | 12° |
| 2026-05-04 11:34 | -22.99723 | -44.00157 | 15709 ft | 367 kts | 12° |
| 2026-05-04 11:34 | -22.97330 | -43.99401 | 15250 ft | 351 kts | 17° |
| 2026-05-04 11:35 | -22.95164 | -43.98279 | 14801 ft | 340 kts | 29° |
| 2026-05-04 11:35 | -22.93294 | -43.96777 | 14363 ft | 331 kts | 40° |
| 2026-05-04 11:35 | -22.91750 | -43.94971 | 13911 ft | 323 kts | 52° |
| 2026-05-04 11:35 | -22.90563 | -43.92946 | 13477 ft | 314 kts | 62° |
| 2026-05-04 11:36 | -22.89630 | -43.90836 | 13068 ft | 306 kts | 64° |
| 2026-05-04 11:36 | -22.88705 | -43.88771 | 12665 ft | 303 kts | 63° |
| 2026-05-04 11:36 | -22.87784 | -43.86721 | 12276 ft | 302 kts | 63° |
| 2026-05-04 11:36 | -22.86866 | -43.84667 | 11867 ft | 303 kts | 63° |
| 2026-05-04 11:37 | -22.85950 | -43.82612 | 11460 ft | 302 kts | 63° |
| 2026-05-04 11:37 | -22.85149 | -43.80508 | 11055 ft | 301 kts | 71° |
| 2026-05-04 11:37 | -22.84558 | -43.78337 | 10659 ft | 299 kts | 73° |
| 2026-05-04 11:37 | -22.83941 | -43.76196 | 10266 ft | 296 kts | 70° |
| 2026-05-04 11:38 | -22.83245 | -43.74104 | 9863 ft | 294 kts | 68° |
| 2026-05-04 11:38 | -22.82557 | -43.72031 | 9452 ft | 291 kts | 69° |
| 2026-05-04 11:38 | -22.81912 | -43.69998 | 9081 ft | 288 kts | 70° |
| 2026-05-04 11:38 | -22.81268 | -43.67957 | 8651 ft | 286 kts | 69° |
| 2026-05-04 11:39 | -22.80612 | -43.65912 | 8145 ft | 287 kts | 69° |
| 2026-05-04 11:39 | -22.79961 | -43.63887 | 7744 ft | 281 kts | 69° |
| 2026-05-04 11:40 | -22.73778 | -43.56432 | 6406 ft | 255 kts | 322° |
| 2026-05-04 11:41 | -22.72786 | -43.58016 | 6428 ft | 261 kts | 287° |
| 2026-05-04 11:41 | -22.72818 | -43.59969 | 6425 ft | 265 kts | 253° |
| 2026-05-04 11:41 | -22.73862 | -43.61591 | 6418 ft | 268 kts | 220° |
| 2026-05-04 11:41 | -22.75578 | -43.62344 | 6415 ft | 271 kts | 186° |
| 2026-05-04 11:42 | -22.77403 | -43.61931 | 6419 ft | 273 kts | 151° |
| 2026-05-04 11:42 | -22.78701 | -43.60469 | 6413 ft | 273 kts | 116° |
| 2026-05-04 11:42 | -22.79024 | -43.58474 | 6417 ft | 272 kts | 81° |
| 2026-05-04 11:42 | -22.78417 | -43.56539 | 6233 ft | 275 kts | 62° |
| 2026-05-04 11:43 | -22.77515 | -43.54715 | 5880 ft | 273 kts | 59° |
| 2026-05-04 11:43 | -22.76643 | -43.52918 | 5524 ft | 266 kts | 63° |
| 2026-05-04 11:43 | -22.75882 | -43.51125 | 5179 ft | 258 kts | 65° |
| 2026-05-04 11:43 | -22.75168 | -43.49419 | 4840 ft | 243 kts | 64° |
| 2026-05-04 11:44 | -22.74470 | -43.47814 | 4527 ft | 228 kts | 64° |
| 2026-05-04 11:44 | -22.73808 | -43.46301 | 4238 ft | 217 kts | 64° |
| 2026-05-04 11:44 | -22.73178 | -43.44857 | 3965 ft | 208 kts | 64° |
| 2026-05-04 11:44 | -22.72572 | -43.43463 | 3708 ft | 202 kts | 65° |
| 2026-05-04 11:45 | -22.72197 | -43.42014 | 3434 ft | 200 kts | 84° |
| 2026-05-04 11:45 | -22.72275 | -43.40520 | 3169 ft | 200 kts | 101° |
| 2026-05-04 11:45 | -22.72789 | -43.39119 | 2894 ft | 202 kts | 118° |
| 2026-05-04 11:45 | -22.73613 | -43.37876 | 2619 ft | 203 kts | 124° |
| 2026-05-04 11:46 | -22.74411 | -43.36694 | 2354 ft | 187 kts | 124° |
| 2026-05-04 11:46 | -22.75153 | -43.35608 | 2051 ft | 165 kts | 123° |
| 2026-05-04 11:46 | -22.75746 | -43.34696 | 1835 ft | 140 kts | 121° |
| 2026-05-04 11:46 | -22.76305 | -43.33847 | 1650 ft | 137 kts | 122° |
| 2026-05-04 11:47 | -22.76849 | -43.33020 | 1465 ft | 131 kts | 123° |
| 2026-05-04 11:47 | -22.77370 | -43.32232 | 1299 ft | 127 kts | 123° |
| 2026-05-04 11:47 | -22.77883 | -43.31452 | 1133 ft | 127 kts | 123° |
| 2026-05-04 11:47 | -22.78395 | -43.30677 | 971 ft | 127 kts | 124° |
| 2026-05-04 11:48 | -22.78907 | -43.29903 | 817 ft | 125 kts | 124° |
| 2026-05-04 11:48 | -22.79403 | -43.29152 | 662 ft | 120 kts | 125° |
| 2026-05-04 11:48 | -22.79888 | -43.28419 | 514 ft | 119 kts | 124° |
| 2026-05-04 11:48 | -22.80364 | -43.27694 | 368 ft | 117 kts | 125° |
| 2026-05-04 11:49 | -22.80840 | -43.26980 | 203 ft | 117 kts | 125° |
| 2026-05-04 11:49 | -22.81299 | -43.26280 | 68 ft | 110 kts | 126° |
| 2026-05-04 11:49 | -22.81692 | -43.25691 | 17 ft | 78 kts | 126° |
| 2026-05-04 11:49 | -22.81925 | -43.25339 | 19 ft | 48 kts | 126° |
| 2026-05-04 11:50 | -22.82039 | -43.25154 | 19 ft | 15 kts | 99° |
| 2026-05-04 11:50 | -22.82049 | -43.25022 | 17 ft | 20 kts | 90° |
| 2026-05-04 11:50 | -22.82050 | -43.24894 | 18 ft | 17 kts | 99° |
| 2026-05-04 11:50 | -22.82105 | -43.24782 | 16 ft | 10 kts | 125° |
| 2026-05-04 11:51 | -22.82085 | -43.24715 | 15 ft | 13 kts | 36° |
| 2026-05-04 11:51 | -22.82001 | -43.24649 | 17 ft | 17 kts | 34° |
| 2026-05-04 11:51 | -22.81903 | -43.24590 | 16 ft | 13 kts | 9° |
| 2026-05-04 11:51 | -22.81797 | -43.24572 | 16 ft | 13 kts | 0° |
| 2026-05-04 11:52 | -22.81772 | -43.24614 | 17 ft | 5 kts | 259° |
| 2026-05-04 11:52 | -22.81808 | -43.24649 | 18 ft | 0 kts | 216° |